Leadore, Idaho
Current Conditions -  °F | °C
As of 1:55 PM on Thursday 23 Oct 2014 (Local Time) from KLLJ Reporting Station
Scattered Clouds Scattered Clouds  
Wind Chill: 62°   Ceiling: Unl
Heat Index: 62°   Visibility: 10mi
Dew Point: 33°   Wind: 14mph
Humidity: 34%   Direction: 200°SSW
Pressure: 29.99"   Gusts: NA
Location:  44.68°N, 113.36°W
Report Text: KLLJ 231955Z AUTO 20012KT 10SM FEW075 SCT110 17/01 A2999 RMK AO2 SLP123 T01670006
Loading
Personal Weather Stations






























Interactive Weather Map
Tropical Storm Tracking
New forecast layout! Learn more

10-Day Weather Forecast

Advertisements
Track Severe Weather on mobile